createdAt,value
2022-09-11T00:00:53.113Z,99.99
2022-09-11T00:01:53.115Z,99.99
2022-09-11T00:02:53.119Z,99.99
2022-09-11T00:03:53.093Z,99.99
2022-09-11T00:04:53.096Z,99.99
2022-09-11T00:05:53.033Z,99.99
2022-09-11T00:06:53.060Z,99.99
2022-09-11T00:07:53.046Z,99.99
2022-09-11T00:08:53.017Z,99.99
2022-09-11T00:09:53.046Z,99.99
2022-09-11T00:10:52.982Z,99.99
2022-09-11T00:11:52.959Z,99.99
2022-09-11T00:12:52.965Z,99.99
2022-09-11T00:13:52.931Z,99.99
2022-09-11T00:14:52.964Z,99.99
2022-09-11T00:15:52.934Z,99.99
2022-09-11T00:16:52.892Z,99.99
2022-09-11T00:17:52.895Z,99.99
2022-09-11T00:18:52.890Z,99.99
2022-09-11T00:19:52.864Z,99.99
2022-09-11T00:20:52.861Z,99.99
2022-09-11T00:21:52.831Z,99.99
2022-09-11T00:22:52.826Z,99.99
2022-09-11T00:23:52.814Z,99.99
2022-09-11T00:24:52.802Z,99.99
2022-09-11T00:25:52.791Z,99.99
2022-09-11T00:26:52.761Z,99.99
2022-09-11T00:27:52.775Z,99.99
2022-09-11T00:28:52.731Z,99.99
2022-09-11T00:29:52.712Z,99.99
2022-09-11T00:30:52.720Z,99.99
2022-09-11T00:31:52.704Z,99.99
2022-09-11T00:32:52.683Z,99.99
2022-09-11T00:33:52.664Z,99.99
2022-09-11T00:34:52.663Z,99.99
2022-09-11T00:35:52.693Z,99.99
2022-09-11T00:36:52.664Z,99.99
2022-09-11T00:37:52.624Z,99.99
2022-09-11T00:38:52.606Z,99.99
2022-09-11T00:39:52.674Z,99.99
2022-09-11T00:40:52.585Z,99.99
2022-09-11T00:41:52.583Z,99.99
2022-09-11T00:42:52.569Z,99.99
2022-09-11T00:43:52.532Z,99.99
2022-09-11T00:44:52.524Z,99.99
2022-09-11T00:45:52.565Z,99.99
2022-09-11T00:46:52.522Z,99.99
2022-09-11T00:47:52.493Z,99.99
2022-09-11T00:48:52.470Z,99.99
2022-09-11T00:49:52.451Z,99.99
2022-09-11T00:50:52.537Z,99.99
2022-09-11T00:51:52.462Z,99.99
2022-09-11T00:52:53.195Z,99.99
2022-09-11T00:53:52.412Z,99.99
2022-09-11T00:54:52.398Z,99.99
2022-09-11T00:55:52.379Z,99.99
2022-09-11T00:56:52.405Z,99.99
2022-09-11T00:57:52.381Z,99.99
2022-09-11T00:58:52.352Z,99.99
2022-09-11T00:59:52.343Z,99.99
2022-09-11T01:00:52.340Z,99.99
2022-09-11T01:01:52.317Z,99.99
2022-09-11T01:02:52.287Z,99.99
2022-09-11T01:03:52.274Z,99.99
2022-09-11T01:04:52.249Z,99.99
2022-09-11T01:05:52.250Z,99.99
2022-09-11T01:06:52.229Z,99.99
2022-09-11T01:07:52.377Z,99.99
2022-09-11T01:09:00.816Z,99.99
2022-09-11T01:09:53.886Z,99.99
2022-09-11T01:10:54.079Z,99.99
2022-09-11T01:11:52.158Z,99.99
2022-09-11T01:12:52.198Z,99.99
2022-09-11T01:13:52.176Z,99.99
2022-09-11T01:14:52.140Z,99.99
2022-09-11T01:15:52.122Z,99.99
2022-09-11T01:16:52.849Z,99.99
2022-09-11T01:17:52.116Z,99.99
2022-09-11T01:18:52.086Z,99.99
2022-09-11T01:19:52.098Z,99.99
2022-09-11T01:20:52.065Z,99.99
2022-09-11T01:21:52.045Z,99.99
2022-09-11T01:22:52.035Z,99.99
2022-09-11T01:23:52.029Z,99.99
2022-09-11T01:24:51.996Z,99.99
2022-09-11T01:25:51.976Z,99.99
2022-09-11T01:26:51.988Z,99.99
2022-09-11T01:27:51.965Z,99.99
2022-09-11T01:28:51.982Z,99.99
2022-09-11T01:29:51.937Z,99.99
2022-09-11T01:30:51.969Z,99.99
2022-09-11T01:31:51.908Z,99.99
2022-09-11T01:32:51.898Z,99.99
2022-09-11T01:33:51.897Z,99.99
2022-09-11T01:34:51.875Z,99.99
2022-09-11T01:35:51.835Z,99.99
2022-09-11T01:36:51.831Z,99.99
2022-09-11T01:37:51.824Z,99.99
2022-09-11T01:38:51.824Z,99.99
2022-09-11T01:39:51.850Z,99.99
2022-09-11T01:40:51.839Z,99.99
2022-09-11T01:41:51.968Z,99.99
2022-09-11T01:42:51.764Z,99.99
2022-09-11T01:43:51.744Z,99.99
2022-09-11T01:44:51.754Z,99.99
2022-09-11T01:45:51.782Z,99.99
2022-09-11T01:46:51.703Z,99.99
2022-09-11T01:47:51.700Z,99.99
2022-09-11T01:48:51.695Z,99.99
2022-09-11T01:49:51.664Z,99.99
2022-09-11T01:50:51.660Z,99.99
2022-09-11T01:51:51.647Z,99.99
2022-09-11T01:52:51.652Z,99.99
2022-09-11T01:53:51.812Z,99.99
2022-09-11T01:54:51.603Z,99.99
2022-09-11T01:55:51.582Z,99.99
2022-09-11T01:56:51.572Z,99.99
2022-09-11T01:57:51.552Z,99.99
2022-09-11T01:58:51.552Z,99.99
2022-09-11T01:59:51.523Z,99.99
2022-09-11T02:00:51.586Z,99.99
2022-09-11T02:01:51.550Z,99.99
2022-09-11T02:02:51.489Z,99.99
2022-09-11T02:03:51.525Z,99.99
2022-09-11T02:04:51.498Z,99.99
2022-09-11T02:05:51.475Z,99.99
2022-09-11T02:06:51.431Z,99.99
2022-09-11T02:07:51.435Z,99.99
2022-09-11T02:08:51.428Z,99.99
2022-09-11T02:09:51.513Z,99.99
2022-09-11T02:10:51.423Z,99.99
2022-09-11T02:11:51.386Z,99.99
2022-09-11T02:12:51.385Z,99.99
2022-09-11T02:13:51.352Z,99.99
2022-09-11T02:14:51.345Z,99.99
2022-09-11T02:15:51.329Z,99.99
2022-09-11T02:16:51.344Z,99.99
2022-09-11T02:17:52.244Z,99.99
2022-09-11T02:18:51.292Z,99.99
2022-09-11T02:19:51.277Z,99.99
2022-09-11T02:20:51.251Z,99.99
2022-09-11T02:21:51.244Z,99.99
2022-09-11T02:22:51.253Z,99.99
2022-09-11T02:23:51.200Z,99.99
2022-09-11T02:24:51.213Z,99.99
2022-09-11T02:25:51.180Z,99.99
2022-09-11T02:26:51.183Z,99.99
2022-09-11T02:27:51.183Z,99.99
2022-09-11T02:28:51.162Z,99.99
2022-09-11T02:29:51.151Z,99.99
2022-09-11T02:30:51.113Z,99.99
2022-09-11T02:31:51.142Z,99.99
2022-09-11T02:32:51.172Z,99.99
2022-09-11T02:33:51.075Z,99.99
2022-09-11T02:34:51.096Z,99.99
2022-09-11T02:35:51.063Z,99.99
2022-09-11T02:36:51.068Z,99.99
2022-09-11T02:37:51.033Z,99.99
2022-09-11T02:38:51.033Z,99.99
2022-09-11T02:39:51.059Z,99.99
2022-09-11T02:40:51.000Z,99.99
2022-09-11T02:41:50.981Z,99.99
2022-09-11T02:42:50.968Z,99.99
2022-09-11T02:43:51.032Z,99.99
2022-09-11T02:44:50.927Z,99.99
2022-09-11T02:45:50.973Z,99.99
2022-09-11T02:46:50.920Z,99.99
2022-09-11T02:47:50.888Z,99.99
2022-09-11T02:48:50.903Z,99.99
2022-09-11T02:49:50.878Z,99.99
2022-09-11T02:50:50.862Z,99.99
2022-09-11T02:51:50.838Z,99.99
2022-09-11T02:52:50.865Z,99.99
2022-09-11T02:53:50.841Z,99.99
2022-09-11T02:54:50.816Z,99.99
2022-09-11T02:55:50.812Z,99.99
2022-09-11T02:56:50.781Z,99.99
2022-09-11T02:57:50.759Z,99.99
2022-09-11T02:58:50.758Z,99.99
2022-09-11T02:59:50.748Z,99.99
2022-09-11T03:00:50.782Z,99.99
2022-09-11T03:01:50.750Z,99.99
2022-09-11T03:02:50.687Z,99.99
2022-09-11T03:03:50.696Z,99.99
2022-09-11T03:04:50.679Z,99.99
2022-09-11T03:05:50.674Z,99.99
2022-09-11T03:06:50.627Z,99.99
2022-09-11T03:07:50.639Z,99.99
2022-09-11T03:08:50.616Z,99.99
2022-09-11T03:09:50.613Z,99.99
2022-09-11T03:10:51.540Z,99.99
2022-09-11T03:11:50.588Z,99.99
2022-09-11T03:12:50.571Z,99.99
2022-09-11T03:13:50.598Z,99.99
2022-09-11T03:14:57.682Z,99.99
2022-09-11T03:15:50.550Z,99.99
2022-09-11T03:16:50.509Z,99.99
2022-09-11T03:17:53.216Z,99.99
2022-09-11T03:18:50.478Z,99.99
2022-09-11T03:19:50.606Z,99.99
2022-09-11T03:20:50.467Z,99.99
2022-09-11T03:21:50.446Z,99.99
2022-09-11T03:22:50.420Z,99.99
2022-09-11T03:23:50.421Z,99.99
2022-09-11T03:24:50.401Z,99.99
2022-09-11T03:25:50.421Z,99.99
2022-09-11T03:26:50.378Z,99.99
2022-09-11T03:27:50.365Z,99.99
2022-09-11T03:28:50.359Z,99.99
2022-09-11T03:29:50.325Z,99.99
2022-09-11T03:30:50.358Z,99.99
2022-09-11T03:31:50.343Z,99.99
2022-09-11T03:32:50.286Z,99.99
2022-09-11T03:33:50.287Z,99.99
2022-09-11T03:34:50.265Z,99.99
2022-09-11T03:35:50.295Z,99.99
2022-09-11T03:36:50.251Z,99.99
2022-09-11T03:37:50.230Z,99.99
2022-09-11T03:38:50.213Z,99.99
2022-09-11T03:39:50.257Z,99.99
2022-09-11T03:40:50.217Z,99.99
2022-09-11T03:41:50.177Z,99.99
2022-09-11T03:42:50.165Z,99.99
2022-09-11T03:43:50.143Z,99.99
2022-09-11T03:44:50.156Z,99.99
2022-09-11T03:45:50.162Z,99.99
2022-09-11T03:46:50.128Z,99.99
2022-09-11T03:47:50.104Z,99.99
2022-09-11T03:48:50.084Z,99.99
2022-09-11T03:49:50.076Z,99.99
2022-09-11T03:50:50.076Z,99.99
2022-09-11T03:51:50.042Z,99.99
2022-09-11T03:52:50.058Z,99.99
2022-09-11T03:53:50.014Z,99.99
2022-09-11T03:54:50.001Z,99.99
2022-09-11T03:55:50.074Z,99.99
2022-09-11T03:56:49.973Z,99.99
2022-09-11T03:57:49.963Z,99.99
2022-09-11T03:58:49.960Z,99.99
2022-09-11T03:59:49.966Z,99.99
2022-09-11T04:00:49.938Z,99.99
2022-09-11T04:01:49.965Z,99.99
2022-09-11T04:02:49.894Z,99.99
2022-09-11T04:03:49.906Z,99.99
2022-09-11T04:04:49.874Z,99.99
2022-09-11T04:05:49.886Z,99.99
2022-09-11T04:06:49.843Z,99.99
2022-09-11T04:07:49.853Z,99.99
2022-09-11T04:08:49.825Z,99.99
2022-09-11T04:09:49.835Z,99.99
2022-09-11T04:10:49.812Z,99.99
2022-09-11T04:11:49.793Z,99.99
2022-09-11T04:12:49.784Z,99.99
2022-09-11T04:13:49.751Z,99.99
2022-09-11T04:14:49.763Z,99.99
2022-09-11T04:15:49.764Z,99.99
2022-09-11T04:16:49.724Z,99.99
2022-09-11T04:17:49.724Z,99.99
2022-09-11T04:18:49.691Z,99.99
2022-09-11T04:19:49.693Z,99.99
2022-09-11T04:20:49.702Z,99.99
2022-09-11T04:21:49.662Z,99.99
2022-09-11T04:22:49.644Z,99.99
2022-09-11T04:23:49.643Z,99.99
2022-09-11T04:24:49.624Z,99.99
2022-09-11T04:25:49.645Z,99.99
2022-09-11T04:26:49.590Z,99.99
2022-09-11T04:27:49.593Z,99.99
2022-09-11T04:28:49.561Z,99.99
2022-09-11T04:29:49.562Z,99.99
2022-09-11T04:30:49.564Z,99.99
2022-09-11T04:31:49.587Z,99.99
2022-09-11T04:32:49.500Z,99.99
2022-09-11T04:33:49.492Z,99.99
2022-09-11T04:34:49.482Z,99.99
2022-09-11T04:35:49.482Z,99.99
2022-09-11T04:36:49.449Z,99.99
2022-09-11T04:37:49.449Z,99.99
2022-09-11T04:38:49.420Z,99.99
2022-09-11T04:39:49.471Z,99.99
2022-09-11T04:40:49.415Z,99.99
2022-09-11T04:41:49.378Z,99.99
2022-09-11T04:42:49.382Z,99.99
2022-09-11T04:43:49.370Z,99.99
2022-09-11T04:44:49.331Z,99.99
2022-09-11T04:45:49.407Z,99.99
2022-09-11T04:46:49.346Z,99.99
2022-09-11T04:47:49.299Z,99.99
2022-09-11T04:48:49.302Z,99.99
2022-09-11T04:49:49.290Z,99.99
2022-09-11T04:50:49.271Z,99.99
2022-09-11T04:51:49.257Z,99.99
2022-09-11T04:52:49.230Z,99.99
2022-09-11T04:53:49.239Z,99.99
2022-09-11T04:54:49.207Z,99.99
2022-09-11T04:55:49.235Z,99.99
2022-09-11T04:56:49.187Z,99.99
2022-09-11T04:57:49.193Z,99.99
2022-09-11T04:58:49.158Z,99.99
2022-09-11T04:59:49.168Z,99.99
2022-09-11T05:00:49.164Z,99.99
2022-09-11T05:01:49.159Z,99.99
2022-09-11T05:02:49.100Z,99.99
2022-09-11T05:03:49.118Z,99.99
2022-09-11T05:04:49.076Z,99.99
2022-09-11T05:05:49.094Z,99.99
2022-09-11T05:06:49.061Z,99.99
2022-09-11T05:07:49.027Z,99.99
2022-09-11T05:08:49.032Z,99.99
2022-09-11T05:09:49.016Z,99.99
2022-09-11T05:10:49.020Z,99.99
2022-09-11T05:11:48.998Z,99.99
2022-09-11T05:12:48.985Z,99.99
2022-09-11T05:13:48.955Z,99.99
2022-09-11T05:14:48.955Z,99.99
2022-09-11T05:15:48.960Z,99.99
2022-09-11T05:16:48.960Z,99.99
2022-09-11T05:17:48.948Z,99.99
2022-09-11T05:18:48.908Z,99.99
2022-09-11T05:19:48.888Z,99.99
2022-09-11T05:20:48.890Z,99.99
2022-09-11T05:21:48.867Z,99.99
2022-09-11T05:22:48.848Z,99.99
2022-09-11T05:23:48.845Z,99.99
2022-09-11T05:24:48.825Z,99.99
2022-09-11T05:25:48.839Z,99.99
2022-09-11T05:26:48.793Z,99.99
2022-09-11T05:27:48.793Z,99.99
2022-09-11T05:28:48.754Z,99.99
2022-09-11T05:29:48.774Z,99.99
2022-09-11T05:30:48.753Z,99.99
2022-09-11T05:31:48.806Z,99.99
2022-09-11T05:32:48.706Z,99.99
2022-09-11T05:33:48.693Z,99.99
2022-09-11T05:34:48.698Z,99.99
2022-09-11T05:35:48.698Z,99.99
2022-09-11T05:36:48.666Z,99.99
2022-09-11T05:37:48.666Z,99.99
2022-09-11T05:38:48.638Z,99.99
2022-09-11T05:39:48.682Z,99.99
2022-09-11T05:40:48.629Z,99.99
2022-09-11T05:41:48.591Z,99.99
2022-09-11T05:42:48.564Z,99.99
2022-09-11T05:43:48.578Z,99.99
2022-09-11T05:44:48.556Z,99.99
2022-09-11T05:45:48.591Z,99.99
2022-09-11T05:46:48.545Z,99.99
2022-09-11T05:47:48.517Z,99.99
2022-09-11T05:48:48.518Z,99.99
2022-09-11T05:49:48.495Z,99.99
2022-09-11T05:50:48.472Z,99.99
2022-09-11T05:51:48.452Z,99.99
2022-09-11T05:52:48.445Z,99.99
2022-09-11T05:53:48.436Z,99.99
2022-09-11T05:54:48.427Z,99.99
2022-09-11T05:55:48.414Z,99.99
2022-09-11T05:56:48.405Z,99.99
2022-09-11T05:57:48.396Z,99.99
2022-09-11T05:58:48.355Z,99.99
2022-09-11T05:59:48.351Z,99.99
2022-09-11T06:00:48.345Z,99.99
2022-09-11T06:01:48.349Z,99.99
2022-09-11T06:02:48.320Z,99.99
2022-09-11T06:03:48.301Z,99.99
2022-09-11T06:04:48.306Z,99.99
2022-09-11T06:05:48.296Z,99.99
2022-09-11T06:06:48.265Z,99.99
2022-09-11T06:07:48.243Z,99.99
2022-09-11T06:08:48.247Z,99.99
2022-09-11T06:09:48.212Z,99.99
2022-09-11T06:10:48.223Z,99.99
2022-09-11T06:11:48.211Z,99.99
2022-09-11T06:12:48.196Z,99.99
2022-09-11T06:13:48.170Z,99.99
2022-09-11T06:14:48.156Z,99.99
2022-09-11T06:15:48.149Z,99.99
2022-09-11T06:16:48.217Z,99.99
2022-09-11T06:17:48.110Z,99.99
2022-09-11T06:18:48.092Z,99.99
2022-09-11T06:19:48.081Z,99.99
2022-09-11T06:20:48.096Z,99.99
2022-09-11T06:21:48.076Z,99.99
2022-09-11T06:22:48.042Z,99.99
2022-09-11T06:23:48.027Z,99.99
2022-09-11T06:24:48.032Z,99.99
2022-09-11T06:25:48.110Z,99.99
2022-09-11T06:26:47.995Z,99.99
2022-09-11T06:27:48.004Z,99.99
2022-09-11T06:28:47.982Z,99.99
2022-09-11T06:29:47.951Z,99.99
2022-09-11T06:30:47.979Z,99.99
2022-09-11T06:31:47.957Z,99.99
2022-09-11T06:32:47.907Z,99.99
2022-09-11T06:33:47.936Z,99.99
2022-09-11T06:34:47.879Z,99.99
2022-09-11T06:35:47.892Z,99.99
2022-09-11T06:36:51.884Z,99.99
2022-09-11T06:37:47.855Z,99.99
2022-09-11T06:38:47.834Z,99.99
2022-09-11T06:39:47.877Z,99.99
2022-09-11T06:40:47.821Z,99.99
2022-09-11T06:41:47.790Z,99.99
2022-09-11T06:42:47.782Z,99.99
2022-09-11T06:43:47.782Z,99.99
2022-09-11T06:44:50.770Z,99.99
2022-09-11T06:45:47.787Z,99.99
2022-09-11T06:46:47.758Z,99.99
2022-09-11T06:47:47.716Z,99.99
2022-09-11T06:48:47.691Z,99.99
2022-09-11T06:49:47.677Z,99.99
2022-09-11T06:50:48.102Z,99.99
2022-09-11T06:51:48.550Z,99.99
2022-09-11T06:52:48.409Z,99.99
2022-09-11T06:53:47.648Z,99.99
2022-09-11T06:54:47.607Z,99.99
2022-09-11T06:55:47.618Z,99.99
2022-09-11T06:56:47.584Z,99.99
2022-09-11T06:57:47.605Z,99.99
2022-09-11T06:58:47.577Z,99.99
2022-09-11T06:59:47.570Z,99.99
2022-09-11T07:00:47.584Z,99.99
2022-09-11T07:01:47.656Z,99.99
2022-09-11T07:02:47.520Z,99.99
2022-09-11T07:03:47.511Z,99.99
2022-09-11T07:04:47.511Z,99.99
2022-09-11T07:05:47.483Z,99.99
2022-09-11T07:06:47.472Z,99.99
2022-09-11T07:07:47.437Z,99.99
2022-09-11T07:08:47.450Z,99.99
2022-09-11T07:09:47.429Z,99.99
2022-09-11T07:10:47.424Z,99.99
2022-09-11T07:11:47.400Z,99.99
2022-09-11T07:12:47.376Z,99.99
2022-09-11T07:13:47.383Z,99.99
2022-09-11T07:14:47.366Z,99.99
2022-09-11T07:15:47.365Z,99.99
2022-09-11T07:16:47.377Z,99.99
2022-09-11T07:17:47.307Z,99.99
2022-09-11T07:18:47.305Z,99.99
2022-09-11T07:19:47.282Z,99.99
2022-09-11T07:20:47.285Z,99.99
2022-09-11T07:21:47.257Z,99.99
2022-09-11T07:22:47.259Z,99.99
2022-09-11T07:23:47.248Z,99.99
2022-09-11T07:24:47.219Z,99.99
2022-09-11T07:25:47.251Z,99.99
2022-09-11T07:26:47.212Z,99.99
2022-09-11T07:27:47.176Z,99.99
2022-09-11T07:28:47.164Z,99.99
2022-09-11T07:29:47.155Z,99.99
2022-09-11T07:30:47.210Z,99.99
2022-09-11T07:31:48.755Z,99.99
2022-09-11T07:32:47.105Z,99.99
2022-09-11T07:33:47.095Z,99.99
2022-09-11T07:34:47.090Z,99.99
2022-09-11T07:35:47.082Z,99.99
2022-09-11T07:36:47.099Z,99.99
2022-09-11T07:37:50.747Z,99.99
2022-09-11T07:38:47.066Z,99.99
2022-09-11T07:39:47.110Z,99.99
2022-09-11T07:40:47.061Z,99.99
2022-09-11T07:41:47.007Z,99.99
2022-09-11T07:42:46.982Z,99.99
2022-09-11T07:43:47.020Z,99.99
2022-09-11T07:44:46.964Z,99.99
2022-09-11T07:45:46.998Z,99.99
2022-09-11T07:46:46.924Z,99.99
2022-09-11T07:47:46.934Z,99.99
2022-09-11T07:48:46.893Z,99.99
2022-09-11T07:49:46.886Z,99.99
2022-09-11T07:50:46.905Z,99.99
2022-09-11T07:51:46.867Z,99.99
2022-09-11T07:52:46.858Z,99.99
2022-09-11T07:53:46.822Z,99.99
2022-09-11T07:54:46.826Z,99.99
2022-09-11T07:55:46.827Z,99.99
2022-09-11T07:56:46.806Z,99.99
2022-09-11T07:57:46.802Z,99.99
2022-09-11T07:58:46.783Z,99.99
2022-09-11T07:59:46.755Z,99.99
2022-09-11T08:00:46.752Z,99.99
2022-09-11T08:01:46.734Z,99.99
2022-09-11T08:02:46.727Z,99.99
2022-09-11T08:03:46.717Z,99.99
2022-09-11T08:04:46.705Z,99.99
2022-09-11T08:05:46.684Z,99.99
2022-09-11T08:06:46.660Z,99.99
2022-09-11T08:07:46.659Z,99.99
2022-09-11T08:08:46.636Z,99.99
2022-09-11T08:09:46.743Z,99.99
2022-09-11T08:10:46.628Z,99.99
2022-09-11T08:11:46.587Z,99.99
2022-09-11T08:12:46.601Z,99.99
2022-09-11T08:13:46.560Z,99.99
2022-09-11T08:14:46.550Z,99.99
2022-09-11T08:15:46.586Z,99.99
2022-09-11T08:16:46.571Z,99.99
2022-09-11T08:17:46.531Z,99.99
2022-09-11T08:18:46.535Z,99.99
2022-09-11T08:19:46.491Z,99.99
2022-09-11T08:20:46.491Z,99.99
2022-09-11T08:21:46.473Z,99.99
2022-09-11T08:22:46.452Z,99.99
2022-09-11T08:23:46.441Z,99.99
2022-09-11T08:24:46.443Z,99.67
2022-09-11T08:25:46.434Z,99.47
2022-09-11T08:26:48.997Z,99.67
2022-09-11T08:27:46.380Z,99.77
2022-09-11T08:28:46.367Z,99.87
2022-09-11T08:29:46.360Z,99.98
2022-09-11T08:30:46.372Z,99.98
2022-09-11T08:31:46.338Z,99.98
2022-09-11T08:32:46.392Z,99.98
2022-09-11T08:33:46.320Z,99.98
2022-09-11T08:34:46.287Z,99.67
2022-09-11T08:35:46.287Z,99.47
2022-09-11T08:36:46.269Z,99.16
2022-09-11T08:37:46.301Z,99.16
2022-09-11T08:38:46.550Z,99.27
2022-09-11T08:39:46.280Z,99.27
2022-09-11T08:40:50.202Z,99.27
2022-09-11T08:41:46.203Z,99.27
2022-09-11T08:42:46.210Z,99.27
2022-09-11T08:43:46.167Z,99.16
2022-09-11T08:44:46.168Z,99.07
2022-09-11T08:45:46.210Z,99.07
2022-09-11T08:46:46.128Z,99.07
2022-09-11T08:47:46.154Z,98.96
2022-09-11T08:48:46.113Z,98.76
2022-09-11T08:49:46.102Z,98.92
2022-09-11T08:50:46.092Z,98.71
2022-09-11T08:51:46.062Z,98.82
2022-09-11T08:52:46.060Z,98.92
2022-09-11T08:53:46.049Z,99.12
2022-09-11T08:54:46.038Z,98.92
2022-09-11T08:55:46.022Z,98.71
2022-09-11T08:56:45.993Z,98.92
2022-09-11T08:57:45.992Z,99.22
2022-09-11T08:58:45.983Z,99.12
2022-09-11T08:59:45.972Z,98.82
2022-09-11T09:00:45.980Z,98.82
2022-09-11T09:01:45.987Z,98.82
2022-09-11T09:02:45.936Z,99.02
2022-09-11T09:03:45.920Z,99.02
2022-09-11T09:04:45.908Z,99.12
2022-09-11T09:05:45.904Z,98.82
2022-09-11T09:06:45.889Z,98.51
2022-09-11T09:07:45.869Z,98.21
2022-09-11T09:08:45.857Z,98.21
2022-09-11T09:09:45.841Z,98.11
2022-09-11T09:10:45.845Z,98.31
2022-09-11T09:11:45.811Z,98.41
2022-09-11T09:12:45.800Z,98.51
2022-09-11T09:13:45.777Z,98.71
2022-09-11T09:15:39.352Z,98.87
2022-09-11T09:16:39.018Z,98.61
2022-09-11T09:17:38.756Z,98.41
2022-09-11T09:18:38.707Z,98.31
2022-09-11T09:19:38.727Z,98.47
2022-09-11T09:20:38.738Z,98.77
2022-09-11T09:21:38.677Z,98.67
2022-09-11T09:22:38.682Z,98.27
2022-09-11T09:23:38.695Z,98.07
2022-09-11T09:24:38.634Z,98.07
2022-09-11T09:25:38.640Z,98.07
2022-09-11T09:26:38.723Z,97.86
2022-09-11T09:27:38.608Z,97.86
2022-09-11T09:28:38.608Z,97.86
2022-09-11T09:29:38.613Z,98.02
2022-09-11T09:30:38.599Z,98.02
2022-09-11T09:31:38.551Z,97.91
2022-09-11T09:32:38.550Z,98.02
2022-09-11T09:33:38.565Z,98.02
2022-09-11T09:34:38.528Z,98.11
2022-09-11T09:35:38.759Z,97.91
2022-09-11T09:36:38.509Z,97.51
2022-09-11T09:37:38.492Z,97.21
2022-09-11T09:38:38.454Z,97.11
2022-09-11T09:39:38.479Z,96.80
2022-09-11T09:40:38.516Z,96.95
2022-09-11T09:41:38.440Z,97.01
2022-09-11T09:42:38.448Z,97.31
2022-09-11T09:43:38.395Z,97.51
2022-09-11T09:44:38.374Z,97.31
2022-09-11T09:45:38.472Z,97.41
2022-09-11T09:46:38.345Z,97.51
2022-09-11T09:47:38.325Z,97.61
2022-09-11T09:48:38.335Z,97.71
2022-09-11T09:49:38.313Z,97.91
2022-09-11T09:50:38.328Z,97.71
2022-09-11T09:51:38.297Z,97.71
2022-09-11T09:52:38.275Z,97.71
2022-09-11T09:53:38.276Z,97.51
2022-09-11T09:54:38.275Z,97.11
2022-09-11T09:55:38.245Z,97.31
2022-09-11T09:56:38.239Z,97.31
2022-09-11T09:57:38.224Z,97.31
2022-09-11T09:58:38.213Z,97.11
2022-09-11T09:59:38.192Z,97.01
2022-09-11T10:00:38.194Z,96.80
2022-09-11T10:01:38.179Z,97.11
2022-09-11T10:02:38.168Z,97.31
2022-09-11T10:03:38.122Z,97.31
2022-09-11T10:04:38.127Z,97.21
2022-09-11T10:05:38.123Z,97.21
2022-09-11T10:06:38.113Z,97.21
2022-09-11T10:07:38.073Z,97.31
2022-09-11T10:08:38.084Z,97.16
2022-09-11T10:09:38.994Z,96.70
2022-09-11T10:10:38.075Z,96.56
2022-09-11T10:11:38.036Z,96.66
2022-09-11T10:12:38.020Z,96.56
2022-09-11T10:13:37.993Z,96.86
2022-09-11T10:14:53.396Z,96.56
2022-09-11T10:15:39.035Z,95.75
2022-09-11T10:16:37.972Z,95.85
2022-09-11T10:17:37.970Z,95.95
2022-09-11T10:18:37.930Z,95.81
2022-09-11T10:19:37.914Z,95.30
2022-09-11T10:20:37.915Z,95.20
2022-09-11T10:21:37.905Z,95.30
2022-09-11T10:22:37.885Z,95.50
2022-09-11T10:23:37.884Z,95.56
2022-09-11T10:24:37.871Z,95.56
2022-09-11T10:25:37.846Z,95.46
2022-09-11T10:26:37.847Z,94.85
2022-09-11T10:27:37.804Z,94.35
2022-09-11T10:28:37.825Z,94.15
2022-09-11T10:29:37.798Z,94.35
2022-09-11T10:30:37.814Z,94.15
2022-09-11T10:31:37.773Z,94.35
2022-09-11T10:32:37.748Z,93.74
2022-09-11T10:33:37.744Z,93.54
2022-09-11T10:34:37.747Z,93.50
2022-09-11T10:35:37.753Z,93.30
2022-09-11T10:36:37.704Z,93.10
2022-09-11T10:37:37.681Z,93.10
2022-09-11T10:38:41.318Z,93.40
2022-09-11T10:39:37.699Z,93.14
2022-09-11T10:40:37.674Z,92.74
2022-09-11T10:41:37.622Z,92.94
2022-09-11T10:42:37.633Z,92.94
2022-09-11T10:43:37.600Z,93.04
2022-09-11T10:44:37.600Z,93.54
2022-09-11T10:45:37.669Z,94.31
2022-09-11T10:46:44.351Z,93.44
2022-09-11T10:47:37.572Z,93.14
2022-09-11T10:48:37.545Z,93.14
2022-09-11T10:49:37.542Z,92.94
2022-09-11T10:50:37.531Z,92.83
2022-09-11T10:51:37.511Z,92.94
2022-09-11T10:52:37.491Z,93.24
2022-09-11T10:53:37.469Z,93.44
2022-09-11T10:54:37.474Z,93.54
2022-09-11T10:55:37.515Z,93.65
2022-09-11T10:56:37.450Z,93.65
2022-09-11T10:57:37.443Z,93.44
2022-09-11T10:58:37.423Z,93.34
2022-09-11T10:59:37.410Z,93.70
2022-09-11T11:00:37.412Z,93.80
2022-09-11T11:01:37.549Z,93.90
2022-09-11T11:02:37.367Z,93.26
2022-09-11T11:03:37.362Z,93.05
2022-09-11T11:04:37.337Z,92.55
2022-09-11T11:05:37.355Z,92.14
2022-09-11T11:06:37.307Z,92.35
2022-09-11T11:07:37.313Z,92.45
2022-09-11T11:08:37.294Z,91.85
2022-09-11T11:09:37.266Z,91.64
2022-09-11T11:10:37.267Z,91.04
2022-09-11T11:11:37.242Z,91.24
2022-09-11T11:12:37.243Z,91.70
2022-09-11T11:13:37.280Z,91.19
2022-09-11T11:14:37.208Z,90.99
2022-09-11T11:15:37.314Z,89.89
2022-09-11T11:16:37.222Z,89.48
2022-09-11T11:17:37.182Z,89.89
2022-09-11T11:18:37.159Z,89.95
2022-09-11T11:19:37.151Z,89.95
2022-09-11T11:20:37.169Z,90.25
2022-09-11T11:21:37.129Z,89.75
2022-09-11T11:22:37.111Z,89.04
2022-09-11T11:23:37.111Z,89.24
2022-09-11T11:24:37.077Z,89.20
2022-09-11T11:25:37.076Z,88.79
2022-09-11T11:26:37.047Z,88.79
2022-09-11T11:27:37.054Z,88.90
2022-09-11T11:28:37.028Z,89.40
2022-09-11T11:29:37.008Z,89.50
2022-09-11T11:30:37.017Z,88.95
2022-09-11T11:31:38.666Z,87.85
2022-09-11T11:32:36.992Z,88.35
2022-09-11T11:33:36.956Z,88.45
2022-09-11T11:34:36.947Z,88.45
2022-09-11T11:35:36.961Z,87.75
2022-09-11T11:36:36.918Z,87.55
2022-09-11T11:37:36.920Z,87.55
2022-09-11T11:38:36.924Z,87.75
2022-09-11T11:39:36.900Z,86.54
2022-09-11T11:40:36.884Z,87.19
2022-09-11T11:41:36.869Z,87.19
2022-09-11T11:42:36.848Z,87.08
2022-09-11T11:43:36.834Z,87.45
2022-09-11T11:44:36.831Z,87.35
2022-09-11T11:45:36.846Z,86.38
2022-09-11T11:46:36.964Z,86.18
2022-09-11T11:47:36.816Z,86.79
2022-09-11T11:48:36.832Z,87.29
2022-09-11T11:49:36.766Z,86.88
2022-09-11T11:50:36.773Z,86.68
2022-09-11T11:51:36.725Z,87.19
2022-09-11T11:52:36.720Z,87.39
2022-09-11T11:53:36.717Z,87.33
2022-09-11T11:54:36.703Z,87.33
2022-09-11T11:55:36.685Z,87.53
2022-09-11T11:56:36.665Z,87.83
2022-09-11T11:57:37.164Z,88.34
2022-09-11T11:58:36.644Z,88.34
2022-09-11T11:59:36.625Z,87.87
2022-09-11T12:00:36.633Z,87.47
2022-09-11T12:01:36.638Z,87.17
2022-09-11T12:02:36.602Z,87.47
2022-09-11T12:03:36.681Z,87.77
2022-09-11T12:04:36.578Z,87.87
2022-09-11T12:05:36.563Z,87.67
2022-09-11T12:06:36.542Z,87.27
2022-09-11T12:07:36.523Z,87.67
2022-09-11T12:08:36.538Z,87.98
2022-09-11T12:09:36.522Z,88.34
2022-09-11T12:10:36.517Z,88.43
2022-09-11T12:11:36.487Z,87.53
2022-09-11T12:12:36.464Z,87.49
2022-09-11T12:13:36.487Z,86.38
2022-09-11T12:14:36.461Z,86.79
2022-09-11T12:15:36.468Z,87.08
2022-09-11T12:16:36.529Z,86.88
2022-09-11T12:17:36.416Z,86.24
2022-09-11T12:18:36.505Z,84.74
2022-09-11T12:19:36.387Z,83.83
2022-09-11T12:20:36.378Z,83.73
2022-09-11T12:21:36.385Z,84.74
2022-09-11T12:22:36.348Z,83.79
2022-09-11T12:23:36.326Z,83.79
2022-09-11T12:24:36.324Z,84.19
2022-09-11T12:25:36.347Z,84.59
2022-09-11T12:26:36.306Z,84.95
2022-09-11T12:27:36.279Z,84.05
2022-09-11T12:28:36.253Z,82.75
2022-09-11T12:29:36.243Z,83.01
2022-09-11T12:30:36.232Z,82.70
2022-09-11T12:31:36.270Z,82.81
2022-09-11T12:32:36.224Z,82.00
2022-09-11T12:33:36.210Z,82.31
2022-09-11T12:34:36.212Z,82.70
2022-09-11T12:35:36.211Z,83.31
2022-09-11T12:36:36.195Z,84.21
2022-09-11T12:37:36.185Z,82.90
2022-09-11T12:38:36.153Z,81.94
2022-09-11T12:39:36.153Z,81.04
2022-09-11T12:40:36.111Z,81.24
2022-09-11T12:41:36.093Z,82.45
2022-09-11T12:42:36.092Z,82.14
2022-09-11T12:43:36.071Z,82.24
2022-09-11T12:44:36.052Z,80.98
2022-09-11T12:45:36.090Z,81.38
2022-09-11T12:46:36.036Z,81.27
2022-09-11T12:47:36.088Z,80.88
2022-09-11T12:48:35.999Z,79.57
2022-09-11T12:49:36.014Z,80.68
2022-09-11T12:50:35.987Z,80.47
2022-09-11T12:51:35.975Z,81.18
2022-09-11T12:52:35.976Z,81.58
2022-09-11T12:53:35.968Z,79.97